createdAt,value
2018-07-25T00:00:33.282Z,15.30
2018-07-25T00:03:00.649Z,15.03
2018-07-25T00:05:28.146Z,15.00
2018-07-25T00:07:55.598Z,15.40
2018-07-25T00:10:27.581Z,15.38
2018-07-25T00:12:55.072Z,15.53
2018-07-25T00:15:22.501Z,15.45
2018-07-25T00:17:49.928Z,15.72
2018-07-25T00:20:17.409Z,15.35
2018-07-25T00:22:44.871Z,14.93
2018-07-25T00:25:12.369Z,15.23
2018-07-25T00:27:39.892Z,14.90
2018-07-25T00:30:07.419Z,15.18
2018-07-25T00:32:34.879Z,15.05
2018-07-25T00:35:02.373Z,15.55
2018-07-25T00:37:29.931Z,15.80
2018-07-25T00:39:57.427Z,16.05
2018-07-25T00:42:24.877Z,15.28
2018-07-25T00:44:52.369Z,15.48
2018-07-25T00:47:19.897Z,15.48
2018-07-25T00:49:47.310Z,15.90
2018-07-25T00:52:14.720Z,15.65
2018-07-25T00:54:42.162Z,16.17
2018-07-25T00:57:09.535Z,15.50
2018-07-25T00:59:37.062Z,16.30
2018-07-25T01:02:04.501Z,15.90
2018-07-25T01:04:31.946Z,16.05
2018-07-25T01:06:59.411Z,16.00
2018-07-25T01:09:26.902Z,15.90
2018-07-25T01:11:54.336Z,16.42
2018-07-25T01:14:21.832Z,16.70
2018-07-25T01:16:49.334Z,16.75
2018-07-25T01:19:16.765Z,16.40
2018-07-25T01:21:44.343Z,16.50
2018-07-25T01:24:11.777Z,16.40
2018-07-25T01:26:39.150Z,16.70
2018-07-25T01:29:06.628Z,16.13
2018-07-25T01:31:34.164Z,16.73
2018-07-25T01:34:01.618Z,17.05
2018-07-25T01:36:29.011Z,17.00
2018-07-25T01:38:56.504Z,16.60
2018-07-25T01:41:23.896Z,16.70
2018-07-25T01:43:51.323Z,16.62
2018-07-25T01:46:18.782Z,16.65
2018-07-25T01:48:46.280Z,16.10
2018-07-25T01:51:13.751Z,16.60
2018-07-25T01:53:41.260Z,16.60
2018-07-25T01:56:08.843Z,16.20
2018-07-25T01:58:36.213Z,16.97
2018-07-25T02:01:03.677Z,16.67
2018-07-25T02:03:31.179Z,16.70
2018-07-25T02:05:58.630Z,16.97
2018-07-25T02:08:26.109Z,17.32
2018-07-25T02:10:53.604Z,17.40
2018-07-25T02:13:21.033Z,17.07
2018-07-25T02:15:48.527Z,18.07
2018-07-25T02:18:16.076Z,17.77
2018-07-25T02:20:43.521Z,17.77
2018-07-25T02:23:11.007Z,17.60
2018-07-25T02:25:38.487Z,16.67
2018-07-25T02:28:06.033Z,17.33
2018-07-25T02:30:33.527Z,17.00
2018-07-25T02:33:00.971Z,16.97
2018-07-25T02:35:28.403Z,17.25
2018-07-25T02:37:55.908Z,17.27
2018-07-25T02:40:23.876Z,16.80
2018-07-25T02:42:51.450Z,16.82
2018-07-25T02:45:18.982Z,17.40
2018-07-25T02:47:46.555Z,17.00
2018-07-25T02:50:14.071Z,17.50
2018-07-25T02:52:41.540Z,16.87
2018-07-25T02:55:08.979Z,17.63
2018-07-25T02:57:36.398Z,17.50
2018-07-25T03:00:04.948Z,17.37
2018-07-25T03:02:32.386Z,17.33
2018-07-25T03:04:59.856Z,17.70
2018-07-25T03:07:27.273Z,17.63
2018-07-25T03:09:54.789Z,17.23
2018-07-25T03:12:22.232Z,17.47
2018-07-25T03:14:49.754Z,17.20
2018-07-25T03:17:17.175Z,17.32
2018-07-25T03:19:44.633Z,17.40
2018-07-25T03:22:12.076Z,17.50
2018-07-25T03:24:39.594Z,17.50
2018-07-25T03:27:07.249Z,17.67
2018-07-25T03:29:34.791Z,18.10
2018-07-25T03:32:02.277Z,18.37
2018-07-25T03:34:29.726Z,18.37
2018-07-25T03:36:57.258Z,18.30
2018-07-25T03:39:24.664Z,18.42
2018-07-25T03:41:52.065Z,18.62
2018-07-25T03:44:19.596Z,18.17
2018-07-25T03:46:47.064Z,19.00
2018-07-25T03:49:14.547Z,19.42
2018-07-25T03:51:42.123Z,19.07
2018-07-25T03:54:09.602Z,18.90
2018-07-25T03:56:37.035Z,19.65
2018-07-25T03:59:04.438Z,18.37
2018-07-25T04:01:31.853Z,20.72
2018-07-25T04:03:59.418Z,20.57
2018-07-25T04:06:26.876Z,21.20
2018-07-25T04:08:54.342Z,20.68
2018-07-25T04:11:21.793Z,20.05
2018-07-25T04:13:49.234Z,20.70
2018-07-25T04:16:16.792Z,19.87
2018-07-25T04:18:44.300Z,19.70
2018-07-25T04:21:11.787Z,19.30
2018-07-25T04:23:39.158Z,19.32
2018-07-25T04:26:06.625Z,19.57
2018-07-25T04:28:34.114Z,20.43
2018-07-25T04:31:01.660Z,20.72
2018-07-25T04:33:29.082Z,21.35
2018-07-25T04:35:56.762Z,19.98
2018-07-25T04:38:24.264Z,20.23
2018-07-25T04:40:52.595Z,19.70
2018-07-25T04:43:20.028Z,19.52
2018-07-25T04:45:47.591Z,20.03
2018-07-25T04:48:15.105Z,19.62
2018-07-25T04:50:42.511Z,18.85
2018-07-25T04:53:09.981Z,18.90
2018-07-25T04:55:37.407Z,19.42
2018-07-25T04:58:04.883Z,19.40
2018-07-25T05:00:32.416Z,20.45
2018-07-25T05:02:59.908Z,19.98
2018-07-25T05:05:27.557Z,20.30
2018-07-25T05:07:55.101Z,19.42
2018-07-25T05:10:22.693Z,20.37
2018-07-25T05:12:50.100Z,20.43
2018-07-25T05:15:17.646Z,19.87
2018-07-25T05:17:45.040Z,19.87
2018-07-25T05:20:12.419Z,19.82
2018-07-25T05:22:39.980Z,19.85
2018-07-25T05:25:07.539Z,19.70
2018-07-25T05:27:34.968Z,19.32
2018-07-25T05:30:02.580Z,19.77
2018-07-25T05:32:30.102Z,19.57
2018-07-25T05:34:57.565Z,19.37
2018-07-25T05:37:25.144Z,19.98
2018-07-25T05:39:52.655Z,19.63
2018-07-25T05:42:20.068Z,19.27
2018-07-25T05:44:47.532Z,19.05
2018-07-25T05:47:15.008Z,18.77
2018-07-25T05:49:42.527Z,18.77
2018-07-25T05:52:09.996Z,18.47
2018-07-25T05:54:37.445Z,18.70
2018-07-25T05:57:04.835Z,18.10
2018-07-25T05:59:32.277Z,19.52
2018-07-25T06:01:59.803Z,18.25
2018-07-25T06:04:27.373Z,18.57
2018-07-25T06:06:54.766Z,19.27
2018-07-25T06:09:22.251Z,18.73
2018-07-25T06:11:49.732Z,19.10
2018-07-25T06:14:17.390Z,20.52
2018-07-25T06:16:44.877Z,19.60
2018-07-25T06:19:12.285Z,20.53
2018-07-25T06:21:39.711Z,20.27
2018-07-25T06:24:07.184Z,20.17
2018-07-25T06:26:34.632Z,19.65
2018-07-25T06:29:02.237Z,19.75
2018-07-25T06:31:29.783Z,20.30
2018-07-25T06:33:57.263Z,19.97
2018-07-25T06:36:24.747Z,21.55
2018-07-25T06:38:52.077Z,21.85
2018-07-25T06:41:20.174Z,21.00
2018-07-25T06:43:48.065Z,21.05
2018-07-25T06:46:15.483Z,20.82
2018-07-25T06:48:42.895Z,21.20
2018-07-25T06:51:10.338Z,21.23
2018-07-25T06:53:37.794Z,22.90
2018-07-25T06:56:05.303Z,23.30
2018-07-25T06:58:32.763Z,22.65
2018-07-25T07:01:00.191Z,22.20
2018-07-25T07:03:27.712Z,22.95
2018-07-25T07:05:56.043Z,22.25
2018-07-25T07:08:25.198Z,21.85
2018-07-25T07:10:52.686Z,22.73
2018-07-25T07:13:20.246Z,21.73
2018-07-25T07:15:47.890Z,21.07
2018-07-25T07:18:15.442Z,21.62
2018-07-25T07:20:42.856Z,21.15
2018-07-25T07:23:10.292Z,20.97
2018-07-25T07:25:37.737Z,19.92
2018-07-25T07:28:05.837Z,21.03
2018-07-25T07:30:33.582Z,20.77
2018-07-25T07:33:01.154Z,21.20
2018-07-25T07:35:28.721Z,20.43
2018-07-25T07:37:56.265Z,20.20
2018-07-25T07:40:23.984Z,20.80
2018-07-25T07:42:51.917Z,20.35
2018-07-25T07:45:19.590Z,20.23
2018-07-25T07:47:47.396Z,20.75
2018-07-25T07:50:14.957Z,20.43
2018-07-25T07:52:42.636Z,19.98
2018-07-25T07:55:10.349Z,20.00
2018-07-25T07:57:38.126Z,19.55
2018-07-25T08:00:06.610Z,19.32
2018-07-25T08:02:34.267Z,18.75
2018-07-25T08:05:01.932Z,19.35
2018-07-25T08:07:29.419Z,17.23
2018-07-25T08:09:57.143Z,17.67
2018-07-25T08:12:24.623Z,18.50
2018-07-25T08:14:52.296Z,18.02
2018-07-25T08:17:20.170Z,18.05
2018-07-25T08:19:50.097Z,18.27
2018-07-25T08:22:17.775Z,18.48
2018-07-25T08:24:45.419Z,18.57
2018-07-25T08:27:13.046Z,18.42
2018-07-25T08:29:40.766Z,17.70
2018-07-25T08:32:08.404Z,19.07
2018-07-25T08:34:36.008Z,19.35
2018-07-25T08:37:03.539Z,18.17
2018-07-25T08:39:31.422Z,18.00
2018-07-25T08:41:58.968Z,17.42
2018-07-25T08:44:26.584Z,17.45
2018-07-25T08:46:54.508Z,17.12
2018-07-25T08:49:21.874Z,17.05
2018-07-25T08:51:49.709Z,16.97
2018-07-25T08:54:23.121Z,17.95
2018-07-25T08:56:50.695Z,17.15
2018-07-25T08:59:19.030Z,16.87
2018-07-25T09:01:46.648Z,17.02
2018-07-25T09:04:14.135Z,17.20
2018-07-25T09:06:42.392Z,17.35
2018-07-25T09:09:10.885Z,17.40
2018-07-25T09:11:38.903Z,17.42
2018-07-25T09:14:06.380Z,16.85
2018-07-25T09:16:34.162Z,16.65
2018-07-25T09:19:03.535Z,17.63
2018-07-25T09:21:34.284Z,16.42
2018-07-25T09:24:02.804Z,16.40
2018-07-25T09:26:44.499Z,16.82
2018-07-25T09:29:11.926Z,16.00
2018-07-25T09:31:47.832Z,16.15
2018-07-25T09:34:15.565Z,16.37
2018-07-25T09:36:43.106Z,16.70
2018-07-25T09:39:11.360Z,15.58
2018-07-25T09:44:32.220Z,15.30
2018-07-25T09:47:07.116Z,16.00
2018-07-25T09:55:14.150Z,15.60
2018-07-25T10:00:40.213Z,15.83
2018-07-25T10:03:07.688Z,15.98
2018-07-25T10:05:35.133Z,16.03
2018-07-25T10:08:29.884Z,15.98
2018-07-25T10:10:57.510Z,15.72
2018-07-25T10:13:25.124Z,14.75
2018-07-25T10:16:02.070Z,15.30
2018-07-25T10:18:31.729Z,14.00
2018-07-25T10:20:59.271Z,14.40
2018-07-25T10:23:26.914Z,14.40
2018-07-25T10:25:54.489Z,13.58
2018-07-25T10:28:21.909Z,13.25
2018-07-25T10:30:50.444Z,12.45
2018-07-25T10:33:25.396Z,12.33
2018-07-25T10:36:05.769Z,13.43
2018-07-25T10:38:33.529Z,12.23
2018-07-25T10:41:01.052Z,12.35
2018-07-25T10:43:28.545Z,12.10
2018-07-25T10:45:56.048Z,12.68
2018-07-25T10:48:23.524Z,12.10
2018-07-25T10:50:51.090Z,10.77
2018-07-25T10:53:28.136Z,10.72
2018-07-25T10:55:55.756Z,11.20
2018-07-25T10:58:23.255Z,10.45
2018-07-25T11:00:52.134Z,17.05
2018-07-25T11:03:19.824Z,15.28
2018-07-25T11:05:47.215Z,11.00
2018-07-25T11:08:29.851Z,10.60
2018-07-25T11:10:57.840Z,9.75
2018-07-25T11:13:28.955Z,10.20
2018-07-25T11:16:12.561Z,8.97
2018-07-25T11:18:41.808Z,9.08
2018-07-25T11:21:35.333Z,9.00
2018-07-25T11:24:10.306Z,9.00
2018-07-25T11:27:02.628Z,8.75
2018-07-25T11:32:35.173Z,9.18
2018-07-25T11:35:03.708Z,9.30
2018-07-25T11:37:49.127Z,8.80
2018-07-25T11:40:30.760Z,8.50
2018-07-25T11:42:59.059Z,8.65
2018-07-25T11:45:28.100Z,8.38
2018-07-25T11:48:14.890Z,8.40
2018-07-25T11:51:05.790Z,8.08
2018-07-25T11:56:31.742Z,8.23
2018-07-25T11:59:14.478Z,7.97
2018-07-25T12:01:48.489Z,8.53
2018-07-25T12:10:13.211Z,7.87
2018-07-25T12:30:43.350Z,7.30
2018-07-25T12:33:31.802Z,7.40
2018-07-25T12:36:49.369Z,7.75
2018-07-25T12:39:18.216Z,7.30
2018-07-25T12:41:55.236Z,7.40
2018-07-25T12:44:28.611Z,7.08
2018-07-25T12:47:00.275Z,6.97
2018-07-25T12:49:41.680Z,7.80
2018-07-25T12:52:25.638Z,7.30
2018-07-25T13:00:57.050Z,7.22
2018-07-25T13:03:26.150Z,6.80
2018-07-25T13:05:53.845Z,7.30
2018-07-25T13:11:23.972Z,7.03
2018-07-25T13:16:40.489Z,7.10
2018-07-25T13:19:08.132Z,6.90
2018-07-25T13:21:47.856Z,7.10
2018-07-25T13:24:16.230Z,7.12
2018-07-25T13:29:23.451Z,6.80
2018-07-25T13:31:51.352Z,6.92
2018-07-25T13:34:28.397Z,7.15
2018-07-25T13:36:59.397Z,7.10
2018-07-25T13:42:32.342Z,7.65
2018-07-25T13:45:00.053Z,7.70
2018-07-25T13:47:27.582Z,7.47
2018-07-25T13:49:55.056Z,7.87
2018-07-25T13:52:22.526Z,7.60
2018-07-25T13:54:51.823Z,7.65
2018-07-25T13:57:19.430Z,7.53
2018-07-25T14:02:44.209Z,7.70
2018-07-25T14:05:23.614Z,7.60
2018-07-25T14:08:14.890Z,8.68
2018-07-25T14:16:50.745Z,7.60
2018-07-25T14:19:18.423Z,7.40
2018-07-25T14:21:46.180Z,7.58
2018-07-25T14:24:22.733Z,7.95
2018-07-25T14:27:00.561Z,7.62
2018-07-25T14:29:29.336Z,7.70
2018-07-25T14:31:57.032Z,7.75
2018-07-25T14:34:26.986Z,7.75
2018-07-25T14:36:58.321Z,7.70
2018-07-25T14:42:11.044Z,8.10
2018-07-25T14:44:51.877Z,7.72
2018-07-25T14:47:19.590Z,7.30
2018-07-25T14:49:48.610Z,7.45
2018-07-25T14:52:17.704Z,6.85
2018-07-25T14:57:28.759Z,7.25
2018-07-25T14:59:56.816Z,7.10
2018-07-25T15:02:26.810Z,6.72
2018-07-25T15:04:54.622Z,7.33
2018-07-25T15:07:22.344Z,6.30
2018-07-25T15:09:50.178Z,6.70
2018-07-25T15:12:30.037Z,6.33
2018-07-25T15:14:58.215Z,6.70
2018-07-25T15:17:27.800Z,6.33
2018-07-25T15:19:55.643Z,5.85
2018-07-25T15:22:25.094Z,6.17
2018-07-25T15:24:53.265Z,6.20
2018-07-25T15:27:20.919Z,6.65
2018-07-25T15:29:48.635Z,6.60
2018-07-25T15:32:16.080Z,6.90
2018-07-25T15:34:43.896Z,6.50
2018-07-25T15:37:11.547Z,6.17
2018-07-25T15:39:39.137Z,6.40
2018-07-25T15:42:07.595Z,6.78
2018-07-25T15:44:35.638Z,6.85
2018-07-25T15:47:03.972Z,6.90
2018-07-25T15:49:31.531Z,6.50
2018-07-25T15:51:59.061Z,6.42
2018-07-25T15:54:34.078Z,5.83
2018-07-25T15:57:01.642Z,6.15
2018-07-25T15:59:34.948Z,6.62
2018-07-25T16:02:02.602Z,5.90
2018-07-25T16:04:30.115Z,6.08
2018-07-25T16:06:57.660Z,5.85
2018-07-25T16:09:25.490Z,6.08
2018-07-25T16:18:17.872Z,4.90
2018-07-25T16:23:38.011Z,5.78
2018-07-25T16:28:58.478Z,5.92
2018-07-25T16:43:30.804Z,6.12
2018-07-25T16:51:31.412Z,6.20
2018-07-25T16:54:02.214Z,6.10
2018-07-25T16:57:09.368Z,6.53
2018-07-25T17:02:42.157Z,6.47
2018-07-25T17:13:59.400Z,6.10
2018-07-25T17:16:35.073Z,6.25
2018-07-25T17:22:05.105Z,5.47
2018-07-25T17:24:32.914Z,5.47
2018-07-25T17:33:09.184Z,6.00
2018-07-25T17:35:40.028Z,5.35
2018-07-25T17:47:15.403Z,6.00
2018-07-25T17:55:57.012Z,7.03
2018-07-25T18:03:50.848Z,6.33
2018-07-25T18:06:19.027Z,6.53
2018-07-25T18:08:46.519Z,8.05
2018-07-25T18:11:23.264Z,7.08
2018-07-25T18:13:59.086Z,7.22
2018-07-25T18:16:26.880Z,6.78
2018-07-25T18:42:52.473Z,9.65
2018-07-25T18:45:19.948Z,9.00
2018-07-25T18:47:47.566Z,8.83
2018-07-25T18:50:15.037Z,9.10
2018-07-25T18:52:42.591Z,9.08
2018-07-25T18:55:10.193Z,8.38
2018-07-25T18:57:37.916Z,8.63
2018-07-25T19:00:05.600Z,8.50
2018-07-25T19:02:33.078Z,8.60
2018-07-25T19:05:00.676Z,8.40
2018-07-25T19:07:28.398Z,8.25
2018-07-25T19:09:56.026Z,8.50
2018-07-25T19:12:24.028Z,8.55
2018-07-25T19:14:57.199Z,8.38
2018-07-25T19:17:24.710Z,7.97
2018-07-25T19:19:52.251Z,8.00
2018-07-25T19:22:19.704Z,9.23
2018-07-25T19:24:47.379Z,8.33
2018-07-25T19:27:14.822Z,9.20
2018-07-25T19:29:42.326Z,9.08
2018-07-25T19:32:09.857Z,8.30
2018-07-25T19:34:37.333Z,8.40
2018-07-25T19:37:04.868Z,8.68
2018-07-25T19:39:37.385Z,8.00
2018-07-25T19:42:06.098Z,8.00
2018-07-25T19:44:41.389Z,8.10
2018-07-25T19:47:11.922Z,8.15
2018-07-25T19:49:39.518Z,7.90
2018-07-25T19:52:06.880Z,8.10
2018-07-25T19:54:34.598Z,8.30
2018-07-25T19:57:02.003Z,8.40
2018-07-25T19:59:29.609Z,9.13
2018-07-25T20:01:57.093Z,9.60
2018-07-25T20:04:25.612Z,9.18
2018-07-25T20:06:53.210Z,8.05
2018-07-25T20:09:20.669Z,8.10
2018-07-25T20:11:48.354Z,8.73
2018-07-25T20:14:21.365Z,9.13
2018-07-25T20:16:48.929Z,9.10
2018-07-25T20:19:17.630Z,9.20
2018-07-25T20:21:45.453Z,10.68
2018-07-25T20:24:13.104Z,10.98
2018-07-25T20:26:40.670Z,10.23
2018-07-25T20:29:13.113Z,9.48
2018-07-25T20:31:40.715Z,9.00
2018-07-25T20:34:08.256Z,9.20
2018-07-25T20:36:35.785Z,9.25
2018-07-25T20:39:06.073Z,8.85
2018-07-25T20:41:46.153Z,8.90
2018-07-25T20:44:14.488Z,11.13
2018-07-25T20:46:42.068Z,10.70
2018-07-25T20:49:09.746Z,10.13
2018-07-25T20:51:40.107Z,10.40
2018-07-25T20:54:08.759Z,9.65
2018-07-25T20:56:41.896Z,9.88
2018-07-25T20:59:09.390Z,9.70
2018-07-25T21:01:41.332Z,9.73
2018-07-25T21:04:08.827Z,10.85
2018-07-25T21:06:36.345Z,10.32
2018-07-25T21:09:06.216Z,10.08
2018-07-25T21:11:34.509Z,9.60
2018-07-25T21:14:01.986Z,9.05
2018-07-25T21:16:29.420Z,8.95
2018-07-25T21:18:57.021Z,9.10
2018-07-25T21:21:24.656Z,9.23
2018-07-25T21:23:52.147Z,10.40
2018-07-25T21:26:19.659Z,10.20
2018-07-25T21:28:47.190Z,9.87
2018-07-25T21:31:15.603Z,10.43
2018-07-25T21:33:43.234Z,10.05
2018-07-25T21:36:10.791Z,9.98
2018-07-25T21:38:39.287Z,9.70
2018-07-25T21:41:07.077Z,9.70
2018-07-25T21:43:34.692Z,10.20
2018-07-25T21:46:02.479Z,10.10
2018-07-25T21:48:30.090Z,9.90
2018-07-25T21:50:57.778Z,10.05
2018-07-25T21:53:25.431Z,10.00
2018-07-25T21:55:52.985Z,9.70
2018-07-25T21:58:20.611Z,10.30
2018-07-25T22:00:57.269Z,10.18
2018-07-25T22:03:24.784Z,10.10
2018-07-25T22:05:52.477Z,10.35
2018-07-25T22:08:20.252Z,10.25
2018-07-25T22:10:47.946Z,10.20
2018-07-25T22:13:15.897Z,10.23
2018-07-25T22:15:43.929Z,9.80
2018-07-25T22:18:11.813Z,9.68
2018-07-25T22:20:39.803Z,9.80
2018-07-25T22:23:07.347Z,9.23
2018-07-25T22:25:34.848Z,10.40
2018-07-25T22:28:02.408Z,10.10
2018-07-25T22:30:29.864Z,9.80
2018-07-25T22:32:57.312Z,9.55
2018-07-25T22:35:24.866Z,10.10
2018-07-25T22:37:52.457Z,10.03
2018-07-25T22:40:19.919Z,9.93
2018-07-25T22:42:47.462Z,9.55
2018-07-25T22:45:14.988Z,10.08
2018-07-25T22:47:42.541Z,10.45
2018-07-25T22:50:10.046Z,11.03
2018-07-25T22:52:37.599Z,10.93
2018-07-25T22:55:05.375Z,11.83
2018-07-25T22:57:32.920Z,11.45
2018-07-25T23:00:00.396Z,12.30
2018-07-25T23:02:29.317Z,11.20
2018-07-25T23:04:56.780Z,11.53
2018-07-25T23:07:24.153Z,11.00
2018-07-25T23:09:51.634Z,9.93
2018-07-25T23:12:19.190Z,10.75
2018-07-25T23:14:46.802Z,10.55
2018-07-25T23:17:14.308Z,10.10
2018-07-25T23:19:41.831Z,10.28
2018-07-25T23:22:09.387Z,9.60
2018-07-25T23:24:36.847Z,9.38
2018-07-25T23:27:04.347Z,9.33
2018-07-25T23:29:31.928Z,9.20
2018-07-25T23:31:59.407Z,8.60
2018-07-25T23:34:26.899Z,8.58
2018-07-25T23:36:54.421Z,8.65
2018-07-25T23:39:21.980Z,8.75
2018-07-25T23:41:49.587Z,8.55
2018-07-25T23:44:17.056Z,8.78
2018-07-25T23:46:44.519Z,8.35
2018-07-25T23:49:11.968Z,8.95
2018-07-25T23:51:39.490Z,8.97
2018-07-25T23:54:07.055Z,8.90
2018-07-25T23:56:34.652Z,9.00
2018-07-25T23:59:02.109Z,8.20
